sensor_id;sensor_type;location;lat;lon;timestamp;pressure;altitude;pressure_sealevel;temperature;humidity
19447;BME280;9862;49.462;11.054;2023-07-24T00:00:36;97451.25;;;23.25;100.00
19447;BME280;9862;49.462;11.054;2023-07-24T00:03:05;97475.13;;;23.01;100.00
19447;BME280;9862;49.462;11.054;2023-07-24T00:05:32;97493.38;;;22.81;100.00
19447;BME280;9862;49.462;11.054;2023-07-24T00:07:59;97534.59;;;22.37;100.00
19447;BME280;9862;49.462;11.054;2023-07-24T00:10:27;97551.50;;;22.15;100.00
19447;BME280;9862;49.462;11.054;2023-07-24T00:12:54;97550.22;;;21.51;100.00
19447;BME280;9862;49.462;11.054;2023-07-24T00:15:21;97518.09;;;21.45;100.00
19447;BME280;9862;49.462;11.054;2023-07-24T00:17:48;97506.38;;;21.49;100.00
19447;BME280;9862;49.462;11.054;2023-07-24T00:20:15;97496.19;;;21.41;100.00
19447;BME280;9862;49.462;11.054;2023-07-24T00:22:42;97486.13;;;21.47;100.00
19447;BME280;9862;49.462;11.054;2023-07-24T00:25:09;97492.38;;;21.42;100.00
19447;BME280;9862;49.462;11.054;2023-07-24T00:27:37;97522.03;;;21.33;100.00
19447;BME280;9862;49.462;11.054;2023-07-24T00:30:06;97527.88;;;21.17;100.00
19447;BME280;9862;49.462;11.054;2023-07-24T00:32:33;97543.91;;;20.89;100.00
19447;BME280;9862;49.462;11.054;2023-07-24T00:35:00;97566.84;;;20.68;100.00
19447;BME280;9862;49.462;11.054;2023-07-24T00:37:26;97583.91;;;20.29;100.00
19447;BME280;9862;49.462;11.054;2023-07-24T00:39:53;97563.69;;;20.16;100.00
19447;BME280;9862;49.462;11.054;2023-07-24T00:42:19;97540.75;;;20.14;100.00
19447;BME280;9862;49.462;11.054;2023-07-24T00:44:48;97562.00;;;20.25;100.00
19447;BME280;9862;49.462;11.054;2023-07-24T00:47:15;97547.34;;;20.37;100.00
19447;BME280;9862;49.462;11.054;2023-07-24T00:49:43;97512.97;;;20.42;100.00
19447;BME280;9862;49.462;11.054;2023-07-24T00:52:11;97486.34;;;20.60;100.00
19447;BME280;9862;49.462;11.054;2023-07-24T00:54:40;97458.19;;;20.61;100.00
19447;BME280;9862;49.462;11.054;2023-07-24T00:57:07;97445.59;;;20.75;100.00
19447;BME280;9862;49.462;11.054;2023-07-24T00:59:34;97444.31;;;20.91;100.00
19447;BME280;9862;49.462;11.054;2023-07-24T01:02:02;97449.03;;;21.04;100.00
19447;BME280;9862;49.462;11.054;2023-07-24T01:04:29;97425.66;;;21.13;100.00
19447;BME280;9862;49.462;11.054;2023-07-24T01:06:56;97436.31;;;21.24;100.00
19447;BME280;9862;49.462;11.054;2023-07-24T01:09:23;97405.59;;;21.14;100.00
19447;BME280;9862;49.462;11.054;2023-07-24T01:11:51;97370.81;;;21.27;100.00
19447;BME280;9862;49.462;11.054;2023-07-24T01:14:25;97352.50;;;21.19;100.00
19447;BME280;9862;49.462;11.054;2023-07-24T01:16:54;97344.88;;;21.21;100.00
19447;BME280;9862;49.462;11.054;2023-07-24T01:19:33;97345.47;;;21.18;100.00
19447;BME280;9862;49.462;11.054;2023-07-24T01:22:09;97360.53;;;21.24;100.00
19447;BME280;9862;49.462;11.054;2023-07-24T01:24:48;97395.66;;;21.29;100.00
19447;BME280;9862;49.462;11.054;2023-07-24T01:27:23;97397.72;;;21.37;100.00
19447;BME280;9862;49.462;11.054;2023-07-24T01:29:50;97411.84;;;21.34;100.00
19447;BME280;9862;49.462;11.054;2023-07-24T01:32:18;97420.38;;;21.41;100.00
19447;BME280;9862;49.462;11.054;2023-07-24T01:34:45;97385.88;;;21.33;100.00
19447;BME280;9862;49.462;11.054;2023-07-24T01:37:13;97363.25;;;21.24;100.00
19447;BME280;9862;49.462;11.054;2023-07-24T01:39:41;97318.03;;;21.24;100.00
19447;BME280;9862;49.462;11.054;2023-07-24T01:42:10;97256.16;;;21.18;100.00
19447;BME280;9862;49.462;11.054;2023-07-24T01:44:38;97245.03;;;21.19;100.00
19447;BME280;9862;49.462;11.054;2023-07-24T01:47:05;97258.44;;;21.29;100.00
19447;BME280;9862;49.462;11.054;2023-07-24T01:49:32;97309.50;;;21.36;100.00
19447;BME280;9862;49.462;11.054;2023-07-24T01:51:59;97318.22;;;21.14;100.00
19447;BME280;9862;49.462;11.054;2023-07-24T01:54:26;97313.66;;;20.91;100.00
19447;BME280;9862;49.462;11.054;2023-07-24T01:56:52;97312.22;;;20.79;100.00
19447;BME280;9862;49.462;11.054;2023-07-24T01:59:19;97303.19;;;20.84;100.00
19447;BME280;9862;49.462;11.054;2023-07-24T02:01:47;97292.25;;;20.94;100.00
19447;BME280;9862;49.462;11.054;2023-07-24T02:04:15;97294.22;;;21.07;100.00
19447;BME280;9862;49.462;11.054;2023-07-24T02:06:42;97292.22;;;21.13;100.00
19447;BME280;9862;49.462;11.054;2023-07-24T02:09:10;97292.75;;;21.15;100.00
19447;BME280;9862;49.462;11.054;2023-07-24T02:11:37;97286.38;;;21.25;100.00
19447;BME280;9862;49.462;11.054;2023-07-24T02:14:05;97293.38;;;21.26;100.00
19447;BME280;9862;49.462;11.054;2023-07-24T02:16:31;97294.13;;;21.31;100.00
19447;BME280;9862;49.462;11.054;2023-07-24T02:19:00;97297.06;;;21.35;100.00
19447;BME280;9862;49.462;11.054;2023-07-24T02:21:28;97297.06;;;21.35;100.00
19447;BME280;9862;49.462;11.054;2023-07-24T02:23:56;97299.66;;;21.40;100.00
19447;BME280;9862;49.462;11.054;2023-07-24T02:26:24;97286.44;;;21.38;100.00
19447;BME280;9862;49.462;11.054;2023-07-24T02:28:52;97287.22;;;21.39;100.00
19447;BME280;9862;49.462;11.054;2023-07-24T02:31:19;97282.63;;;21.39;100.00
19447;BME280;9862;49.462;11.054;2023-07-24T02:33:47;97282.31;;;21.41;100.00
19447;BME280;9862;49.462;11.054;2023-07-24T02:36:16;97286.63;;;21.42;100.00
19447;BME280;9862;49.462;11.054;2023-07-24T02:38:44;97290.16;;;21.42;100.00
19447;BME280;9862;49.462;11.054;2023-07-24T02:41:12;97294.75;;;21.42;100.00
19447;BME280;9862;49.462;11.054;2023-07-24T02:43:42;97302.88;;;21.42;100.00
19447;BME280;9862;49.462;11.054;2023-07-24T02:46:09;97301.28;;;21.41;100.00
19447;BME280;9862;49.462;11.054;2023-07-24T02:48:36;97285.31;;;21.39;100.00
19447;BME280;9862;49.462;11.054;2023-07-24T02:51:03;97290.16;;;21.42;100.00
19447;BME280;9862;49.462;11.054;2023-07-24T02:53:31;97292.28;;;21.46;100.00
19447;BME280;9862;49.462;11.054;2023-07-24T02:56:00;97290.88;;;21.48;100.00
19447;BME280;9862;49.462;11.054;2023-07-24T02:58:27;97292.16;;;21.51;100.00
19447;BME280;9862;49.462;11.054;2023-07-24T03:01:03;97284.94;;;21.46;100.00
19447;BME280;9862;49.462;11.054;2023-07-24T03:03:31;97284.34;;;21.49;100.00
19447;BME280;9862;49.462;11.054;2023-07-24T03:05:59;97291.06;;;21.52;100.00
19447;BME280;9862;49.462;11.054;2023-07-24T03:08:26;97291.91;;;21.52;100.00
19447;BME280;9862;49.462;11.054;2023-07-24T03:10:54;97296.72;;;21.55;100.00
19447;BME280;9862;49.462;11.054;2023-07-24T03:13:21;97292.41;;;21.54;100.00
19447;BME280;9862;49.462;11.054;2023-07-24T03:15:52;97279.97;;;21.53;100.00
19447;BME280;9862;49.462;11.054;2023-07-24T03:18:19;97291.50;;;21.59;100.00
19447;BME280;9862;49.462;11.054;2023-07-24T03:20:47;97283.38;;;21.59;100.00
19447;BME280;9862;49.462;11.054;2023-07-24T03:23:15;97278.25;;;21.57;100.00
19447;BME280;9862;49.462;11.054;2023-07-24T03:25:42;97265.81;;;21.56;100.00
19447;BME280;9862;49.462;11.054;2023-07-24T03:28:11;97262.63;;;21.54;100.00
19447;BME280;9862;49.462;11.054;2023-07-24T03:30:38;97265.03;;;21.56;100.00
19447;BME280;9862;49.462;11.054;2023-07-24T03:33:05;97276.22;;;21.49;100.00
19447;BME280;9862;49.462;11.054;2023-07-24T03:35:33;97264.41;;;21.45;100.00
19447;BME280;9862;49.462;11.054;2023-07-24T03:38:00;97269.94;;;21.67;100.00
19447;BME280;9862;49.462;11.054;2023-07-24T03:40:27;97265.63;;;21.53;100.00
19447;BME280;9862;49.462;11.054;2023-07-24T03:42:53;97253.94;;;21.38;100.00
19447;BME280;9862;49.462;11.054;2023-07-24T03:45:22;97260.16;;;21.39;100.00
19447;BME280;9862;49.462;11.054;2023-07-24T03:47:50;97255.34;;;21.36;100.00
19447;BME280;9862;49.462;11.054;2023-07-24T03:50:17;97248.53;;;21.38;100.00
19447;BME280;9862;49.462;11.054;2023-07-24T03:52:44;97242.81;;;21.40;100.00
19447;BME280;9862;49.462;11.054;2023-07-24T03:55:11;97239.53;;;21.43;100.00
19447;BME280;9862;49.462;11.054;2023-07-24T03:57:39;97226.50;;;21.45;100.00
19447;BME280;9862;49.462;11.054;2023-07-24T04:00:07;97219.66;;;21.48;100.00
19447;BME280;9862;49.462;11.054;2023-07-24T04:02:38;97221.78;;;21.51;100.00
19447;BME280;9862;49.462;11.054;2023-07-24T04:05:07;97210.13;;;21.50;100.00
19447;BME280;9862;49.462;11.054;2023-07-24T04:07:33;97211.25;;;21.49;100.00
19447;BME280;9862;49.462;11.054;2023-07-24T04:10:01;97207.25;;;21.47;100.00
19447;BME280;9862;49.462;11.054;2023-07-24T04:12:29;97203.22;;;21.44;100.00
19447;BME280;9862;49.462;11.054;2023-07-24T04:14:55;97196.22;;;21.43;100.00
19447;BME280;9862;49.462;11.054;2023-07-24T04:17:23;97206.25;;;21.42;100.00
19447;BME280;9862;49.462;11.054;2023-07-24T04:19:51;97210.81;;;21.42;100.00
19447;BME280;9862;49.462;11.054;2023-07-24T04:22:19;97198.94;;;21.43;100.00
19447;BME280;9862;49.462;11.054;2023-07-24T04:24:46;97192.72;;;21.42;100.00
19447;BME280;9862;49.462;11.054;2023-07-24T04:27:13;97196.72;;;21.45;100.00
19447;BME280;9862;49.462;11.054;2023-07-24T04:29:41;97180.34;;;21.50;100.00
19447;BME280;9862;49.462;11.054;2023-07-24T04:32:08;97181.16;;;21.51;100.00
19447;BME280;9862;49.462;11.054;2023-07-24T04:34:35;97176.47;;;21.56;100.00
19447;BME280;9862;49.462;11.054;2023-07-24T04:37:04;97173.75;;;21.56;100.00
19447;BME280;9862;49.462;11.054;2023-07-24T04:39:31;97171.53;;;21.58;100.00
19447;BME280;9862;49.462;11.054;2023-07-24T04:41:58;97183.19;;;21.59;100.00
19447;BME280;9862;49.462;11.054;2023-07-24T04:44:25;97184.38;;;21.66;100.00
19447;BME280;9862;49.462;11.054;2023-07-24T04:46:52;97185.00;;;21.63;100.00
19447;BME280;9862;49.462;11.054;2023-07-24T04:49:24;97175.84;;;21.59;100.00
19447;BME280;9862;49.462;11.054;2023-07-24T04:51:51;97179.78;;;21.67;100.00
19447;BME280;9862;49.462;11.054;2023-07-24T04:54:19;97184.56;;;21.70;100.00
19447;BME280;9862;49.462;11.054;2023-07-24T04:56:46;97188.09;;;21.70;100.00
19447;BME280;9862;49.462;11.054;2023-07-24T04:59:13;97182.66;;;21.70;100.00
19447;BME280;9862;49.462;11.054;2023-07-24T05:01:40;97187.81;;;21.72;100.00
19447;BME280;9862;49.462;11.054;2023-07-24T05:04:07;97190.22;;;21.74;100.00
19447;BME280;9862;49.462;11.054;2023-07-24T05:06:34;97204.88;;;21.73;100.00
19447;BME280;9862;49.462;11.054;2023-07-24T05:09:02;97215.97;;;21.71;100.00
19447;BME280;9862;49.462;11.054;2023-07-24T05:11:30;97231.06;;;21.91;100.00
19447;BME280;9862;49.462;11.054;2023-07-24T05:13:59;97260.13;;;21.71;100.00
19447;BME280;9862;49.462;11.054;2023-07-24T05:16:27;97254.38;;;21.46;100.00
19447;BME280;9862;49.462;11.054;2023-07-24T05:18:53;97215.34;;;21.33;100.00
19447;BME280;9862;49.462;11.054;2023-07-24T05:21:20;97221.41;;;21.25;100.00
19447;BME280;9862;49.462;11.054;2023-07-24T05:23:46;97212.50;;;21.24;100.00
19447;BME280;9862;49.462;11.054;2023-07-24T05:26:14;97198.16;;;21.24;100.00
19447;BME280;9862;49.462;11.054;2023-07-24T05:28:42;97213.16;;;21.35;100.00
19447;BME280;9862;49.462;11.054;2023-07-24T05:31:09;97224.09;;;21.43;100.00
19447;BME280;9862;49.462;11.054;2023-07-24T05:33:36;97220.31;;;21.72;100.00
19447;BME280;9862;49.462;11.054;2023-07-24T05:36:03;97209.56;;;21.67;100.00
19447;BME280;9862;49.462;11.054;2023-07-24T05:38:30;97208.13;;;21.42;100.00
19447;BME280;9862;49.462;11.054;2023-07-24T05:40:57;97206.63;;;21.36;100.00
19447;BME280;9862;49.462;11.054;2023-07-24T05:43:25;97196.50;;;21.41;100.00
19447;BME280;9862;49.462;11.054;2023-07-24T05:45:56;97190.63;;;21.53;100.00
19447;BME280;9862;49.462;11.054;2023-07-24T05:48:25;97197.63;;;21.68;100.00
19447;BME280;9862;49.462;11.054;2023-07-24T05:50:52;97192.22;;;21.82;100.00
19447;BME280;9862;49.462;11.054;2023-07-24T05:53:20;97189.19;;;21.97;100.00
19447;BME280;9862;49.462;11.054;2023-07-24T05:55:46;97188.78;;;22.04;100.00
19447;BME280;9862;49.462;11.054;2023-07-24T05:58:14;97190.50;;;22.13;100.00
19447;BME280;9862;49.462;11.054;2023-07-24T06:00:41;97193.31;;;22.22;100.00
19447;BME280;9862;49.462;11.054;2023-07-24T06:03:09;97187.56;;;22.23;100.00
19447;BME280;9862;49.462;11.054;2023-07-24T06:05:36;97193.97;;;22.27;100.00
19447;BME280;9862;49.462;11.054;2023-07-24T06:08:03;97193.56;;;22.34;100.00
19447;BME280;9862;49.462;11.054;2023-07-24T06:10:30;97210.16;;;22.33;100.00
19447;BME280;9862;49.462;11.054;2023-07-24T06:12:56;97212.88;;;22.33;100.00
19447;BME280;9862;49.462;11.054;2023-07-24T06:15:23;97215.34;;;22.29;100.00
19447;BME280;9862;49.462;11.054;2023-07-24T06:17:50;97219.88;;;22.34;100.00
19447;BME280;9862;49.462;11.054;2023-07-24T06:20:18;97216.69;;;22.32;100.00
19447;BME280;9862;49.462;11.054;2023-07-24T06:22:46;97215.88;;;22.31;100.00
19447;BME280;9862;49.462;11.054;2023-07-24T06:25:13;97213.66;;;22.33;100.00
19447;BME280;9862;49.462;11.054;2023-07-24T06:27:39;97206.19;;;22.39;100.00
19447;BME280;9862;49.462;11.054;2023-07-24T06:30:07;97201.78;;;22.43;100.00
19447;BME280;9862;49.462;11.054;2023-07-24T06:32:33;97197.34;;;22.47;100.00
19447;BME280;9862;49.462;11.054;2023-07-24T06:35:00;97193.41;;;22.53;100.00
19447;BME280;9862;49.462;11.054;2023-07-24T06:37:29;97188.19;;;22.56;100.00
19447;BME280;9862;49.462;11.054;2023-07-24T06:39:56;97187.28;;;22.61;100.00
19447;BME280;9862;49.462;11.054;2023-07-24T06:42:23;97187.28;;;22.61;100.00
19447;BME280;9862;49.462;11.054;2023-07-24T06:44:49;97187.66;;;22.68;100.00
19447;BME280;9862;49.462;11.054;2023-07-24T06:47:16;97171.31;;;22.82;100.00
19447;BME280;9862;49.462;11.054;2023-07-24T06:49:44;97162.94;;;22.92;100.00
19447;BME280;9862;49.462;11.054;2023-07-24T06:52:12;97160.53;;;22.91;100.00
19447;BME280;9862;49.462;11.054;2023-07-24T06:54:40;97155.59;;;22.93;100.00
19447;BME280;9862;49.462;11.054;2023-07-24T06:57:07;97157.19;;;22.94;100.00
19447;BME280;9862;49.462;11.054;2023-07-24T06:59:34;97156.78;;;23.00;100.00
19447;BME280;9862;49.462;11.054;2023-07-24T07:02:01;97156.63;;;23.05;100.00
19447;BME280;9862;49.462;11.054;2023-07-24T07:04:29;97140.84;;;23.07;100.00
19447;BME280;9862;49.462;11.054;2023-07-24T07:06:55;97140.34;;;23.05;100.00
19447;BME280;9862;49.462;11.054;2023-07-24T07:09:22;97139.44;;;23.10;100.00
19447;BME280;9862;49.462;11.054;2023-07-24T07:11:50;97146.13;;;23.12;100.00
19447;BME280;9862;49.462;11.054;2023-07-24T07:14:16;97154.16;;;23.18;100.00
19447;BME280;9862;49.462;11.054;2023-07-24T07:16:43;97164.44;;;23.29;100.00
19447;BME280;9862;49.462;11.054;2023-07-24T07:19:13;97152.94;;;23.32;100.00
19447;BME280;9862;49.462;11.054;2023-07-24T07:21:40;97149.31;;;23.37;100.00
19447;BME280;9862;49.462;11.054;2023-07-24T07:24:06;97142.59;;;23.43;100.00
19447;BME280;9862;49.462;11.054;2023-07-24T07:26:33;97146.59;;;23.37;100.00
19447;BME280;9862;49.462;11.054;2023-07-24T07:29:01;97152.94;;;23.32;100.00
19447;BME280;9862;49.462;11.054;2023-07-24T07:31:29;97147.03;;;23.30;100.00
19447;BME280;9862;49.462;11.054;2023-07-24T07:33:56;97159.19;;;23.33;100.00
19447;BME280;9862;49.462;11.054;2023-07-24T07:36:23;97153.78;;;23.41;100.00
19447;BME280;9862;49.462;11.054;2023-07-24T07:38:50;97155.53;;;23.37;100.00
19447;BME280;9862;49.462;11.054;2023-07-24T07:41:18;97142.47;;;23.48;100.00
19447;BME280;9862;49.462;11.054;2023-07-24T07:43:46;97147.81;;;23.62;100.00
19447;BME280;9862;49.462;11.054;2023-07-24T07:46:14;97138.81;;;23.53;100.00
19447;BME280;9862;49.462;11.054;2023-07-24T07:48:42;97141.03;;;23.51;100.00
19447;BME280;9862;49.462;11.054;2023-07-24T07:51:08;97145.00;;;23.45;100.00
19447;BME280;9862;49.462;11.054;2023-07-24T07:53:35;97153.97;;;23.54;100.00
19447;BME280;9862;49.462;11.054;2023-07-24T07:56:03;97146.34;;;23.56;100.00
19447;BME280;9862;49.462;11.054;2023-07-24T07:58:29;97146.75;;;23.40;100.00
19447;BME280;9862;49.462;11.054;2023-07-24T08:00:56;97148.31;;;23.33;100.00
19447;BME280;9862;49.462;11.054;2023-07-24T08:03:24;97153.56;;;23.29;100.00
19447;BME280;9862;49.462;11.054;2023-07-24T08:05:56;97150.19;;;23.24;100.00
19447;BME280;9862;49.462;11.054;2023-07-24T08:08:23;97158.66;;;23.22;100.00
19447;BME280;9862;49.462;11.054;2023-07-24T08:10:50;97151.03;;;23.33;100.00
19447;BME280;9862;49.462;11.054;2023-07-24T08:13:17;97146.53;;;23.28;100.00
19447;BME280;9862;49.462;11.054;2023-07-24T08:15:44;97149.88;;;23.25;100.00
19447;BME280;9862;49.462;11.054;2023-07-24T08:18:11;97150.84;;;23.29;100.00
19447;BME280;9862;49.462;11.054;2023-07-24T08:20:39;97155.19;;;23.30;100.00
19447;BME280;9862;49.462;11.054;2023-07-24T08:23:06;97144.03;;;23.40;100.00
19447;BME280;9862;49.462;11.054;2023-07-24T08:25:33;97135.25;;;23.43;100.00
19447;BME280;9862;49.462;11.054;2023-07-24T08:28:00;97142.16;;;23.50;100.00
19447;BME280;9862;49.462;11.054;2023-07-24T08:30:27;97162.78;;;23.51;100.00
19447;BME280;9862;49.462;11.054;2023-07-24T08:32:54;97156.09;;;23.57;100.00
19447;BME280;9862;49.462;11.054;2023-07-24T08:35:21;97147.34;;;23.60;100.00
19447;BME280;9862;49.462;11.054;2023-07-24T08:37:50;97143.97;;;23.63;100.00
19447;BME280;9862;49.462;11.054;2023-07-24T08:40:17;97138.78;;;23.75;100.00
19447;BME280;9862;49.462;11.054;2023-07-24T08:42:44;97135.53;;;23.73;100.00
19447;BME280;9862;49.462;11.054;2023-07-24T08:45:13;97124.06;;;23.76;100.00
19447;BME280;9862;49.462;11.054;2023-07-24T08:47:42;97115.13;;;23.84;100.00
19447;BME280;9862;49.462;11.054;2023-07-24T08:50:09;97107.16;;;23.96;100.00
19447;BME280;9862;49.462;11.054;2023-07-24T08:52:37;97118.38;;;24.04;100.00
19447;BME280;9862;49.462;11.054;2023-07-24T08:55:06;97129.56;;;24.28;100.00
19447;BME280;9862;49.462;11.054;2023-07-24T08:57:33;97128.81;;;24.36;100.00
19447;BME280;9862;49.462;11.054;2023-07-24T09:00:01;97117.25;;;24.31;100.00
19447;BME280;9862;49.462;11.054;2023-07-24T09:02:32;97117.09;;;24.27;100.00
19447;BME280;9862;49.462;11.054;2023-07-24T09:05:00;97119.69;;;24.32;100.00
19447;BME280;9862;49.462;11.054;2023-07-24T09:07:26;97119.69;;;24.32;100.00
19447;BME280;9862;49.462;11.054;2023-07-24T09:09:54;97109.41;;;24.29;100.00
19447;BME280;9862;49.462;11.054;2023-07-24T09:12:23;97104.97;;;24.33;100.00
19447;BME280;9862;49.462;11.054;2023-07-24T09:15:00;97095.03;;;24.37;100.00
19447;BME280;9862;49.462;11.054;2023-07-24T09:17:27;97107.50;;;24.38;100.00
19447;BME280;9862;49.462;11.054;2023-07-24T09:19:56;97110.56;;;24.45;100.00
19447;BME280;9862;49.462;11.054;2023-07-24T09:22:23;97105.91;;;24.46;100.00
19447;BME280;9862;49.462;11.054;2023-07-24T09:24:53;97100.34;;;24.34;100.00
19447;BME280;9862;49.462;11.054;2023-07-24T09:27:26;97095.34;;;24.44;100.00
19447;BME280;9862;49.462;11.054;2023-07-24T09:29:55;97095.03;;;24.54;100.00
19447;BME280;9862;49.462;11.054;2023-07-24T09:32:23;97107.84;;;24.54;100.00
19447;BME280;9862;49.462;11.054;2023-07-24T09:34:51;97101.72;;;24.66;100.00
19447;BME280;9862;49.462;11.054;2023-07-24T09:37:25;97096.75;;;24.68;100.00
19447;BME280;9862;49.462;11.054;2023-07-24T09:39:52;97094.22;;;24.71;100.00
19447;BME280;9862;49.462;11.054;2023-07-24T09:42:27;97082.53;;;24.71;100.00
19447;BME280;9862;49.462;11.054;2023-07-24T09:44:54;97080.09;;;24.78;100.00
19447;BME280;9862;49.462;11.054;2023-07-24T09:47:21;97096.28;;;24.74;100.00
19447;BME280;9862;49.462;11.054;2023-07-24T09:49:48;97112.94;;;24.73;100.00
19447;BME280;9862;49.462;11.054;2023-07-24T09:52:17;97113.56;;;24.70;100.00
19447;BME280;9862;49.462;11.054;2023-07-24T09:54:51;97111.81;;;24.74;100.00
19447;BME280;9862;49.462;11.054;2023-07-24T09:57:19;97100.28;;;24.77;100.00
19447;BME280;9862;49.462;11.054;2023-07-24T09:59:49;97107.97;;;24.75;100.00
19447;BME280;9862;49.462;11.054;2023-07-24T10:02:18;97099.47;;;24.76;100.00
19447;BME280;9862;49.462;11.054;2023-07-24T10:04:45;97094.34;;;24.75;100.00
19447;BME280;9862;49.462;11.054;2023-07-24T10:07:13;97080.75;;;24.75;100.00
19447;BME280;9862;49.462;11.054;2023-07-24T10:09:41;97070.88;;;24.44;100.00
19447;BME280;9862;49.462;11.054;2023-07-24T10:12:09;97072.94;;;24.47;100.00
19447;BME280;9862;49.462;11.054;2023-07-24T10:14:36;97063.84;;;24.43;100.00
19447;BME280;9862;49.462;11.054;2023-07-24T10:17:05;97067.97;;;24.49;100.00
19447;BME280;9862;49.462;11.054;2023-07-24T10:19:36;97074.53;;;24.48;100.00
19447;BME280;9862;49.462;11.054;2023-07-24T10:22:03;97076.63;;;24.51;100.00
19447;BME280;9862;49.462;11.054;2023-07-24T10:24:30;97086.88;;;24.46;100.00
19447;BME280;9862;49.462;11.054;2023-07-24T10:26:57;97094.72;;;24.47;100.00
19447;BME280;9862;49.462;11.054;2023-07-24T10:29:24;97091.19;;;24.47;100.00
19447;BME280;9862;49.462;11.054;2023-07-24T10:31:53;97094.56;;;24.44;100.00
19447;BME280;9862;49.462;11.054;2023-07-24T10:34:21;97103.53;;;24.44;100.00
19447;BME280;9862;49.462;11.054;2023-07-24T10:36:49;97112.81;;;24.43;100.00
19447;BME280;9862;49.462;11.054;2023-07-24T10:39:17;97108.63;;;24.37;100.00
19447;BME280;9862;49.462;11.054;2023-07-24T10:41:46;97116.78;;;24.37;100.00
19447;BME280;9862;49.462;11.054;2023-07-24T10:44:13;97112.81;;;24.35;100.00
19447;BME280;9862;49.462;11.054;2023-07-24T10:46:40;97117.09;;;24.27;100.00
19447;BME280;9862;49.462;11.054;2023-07-24T10:49:08;97116.16;;;24.32;100.00
19447;BME280;9862;49.462;11.054;2023-07-24T10:51:37;97114.38;;;24.18;100.00
19447;BME280;9862;49.462;11.054;2023-07-24T10:54:04;97108.59;;;24.20;100.00
19447;BME280;9862;49.462;11.054;2023-07-24T10:56:31;97121.41;;;24.28;100.00
19447;BME280;9862;49.462;11.054;2023-07-24T10:59:10;97116.16;;;24.32;100.00
19447;BME280;9862;49.462;11.054;2023-07-24T11:01:40;97130.81;;;24.22;100.00
19447;BME280;9862;49.462;11.054;2023-07-24T11:04:07;97135.75;;;24.03;100.00
19447;BME280;9862;49.462;11.054;2023-07-24T11:06:34;97130.66;;;24.01;100.00
19447;BME280;9862;49.462;11.054;2023-07-24T11:09:02;97137.38;;;23.95;100.00
19447;BME280;9862;49.462;11.054;2023-07-24T11:11:30;97131.44;;;23.84;100.00
19447;BME280;9862;49.462;11.054;2023-07-24T11:13:58;97131.44;;;23.84;100.00
19447;BME280;9862;49.462;11.054;2023-07-24T11:16:25;97136.19;;;23.70;100.00
19447;BME280;9862;49.462;11.054;2023-07-24T11:18:52;97138.88;;;23.61;100.00
19447;BME280;9862;49.462;11.054;2023-07-24T11:21:22;97142.50;;;23.57;100.00
19447;BME280;9862;49.462;11.054;2023-07-24T11:23:50;97149.41;;;23.63;100.00
19447;BME280;9862;49.462;11.054;2023-07-24T11:26:19;97151.66;;;23.61;100.00
19447;BME280;9862;49.462;11.054;2023-07-24T11:28:48;97140.13;;;23.55;100.00
19447;BME280;9862;49.462;11.054;2023-07-24T11:31:15;97140.31;;;23.59;100.00
19447;BME280;9862;49.462;11.054;2023-07-24T11:33:45;97140.03;;;23.69;100.00
19447;BME280;9862;49.462;11.054;2023-07-24T11:36:12;97147.22;;;23.65;100.00
19447;BME280;9862;49.462;11.054;2023-07-24T11:38:40;97151.00;;;23.64;100.00
19447;BME280;9862;49.462;11.054;2023-07-24T11:41:08;97139.06;;;23.65;100.00
19447;BME280;9862;49.462;11.054;2023-07-24T11:43:45;97133.63;;;23.74;100.00
19447;BME280;9862;49.462;11.054;2023-07-24T11:46:22;97140.53;;;23.80;100.00
19447;BME280;9862;49.462;11.054;2023-07-24T11:48:50;97128.84;;;23.79;100.00
19447;BME280;9862;49.462;11.054;2023-07-24T11:51:18;97126.81;;;23.85;100.00
19447;BME280;9862;49.462;11.054;2023-07-24T11:53:47;97121.13;;;23.64;100.00
19447;BME280;9862;49.462;11.054;2023-07-24T11:56:14;97114.09;;;23.63;100.00
19447;BME280;9862;49.462;11.054;2023-07-24T11:58:43;97128.38;;;23.77;100.00
19447;BME280;9862;49.462;11.054;2023-07-24T12:01:12;97113.69;;;23.87;100.00
19447;BME280;9862;49.462;11.054;2023-07-24T12:03:40;97124.72;;;23.90;100.00
19447;BME280;9862;49.462;11.054;2023-07-24T12:06:14;97117.53;;;23.94;100.00
19447;BME280;9862;49.462;11.054;2023-07-24T12:08:41;97110.69;;;24.06;100.00
19447;BME280;9862;49.462;11.054;2023-07-24T12:11:15;97106.97;;;24.02;100.00
19447;BME280;9862;49.462;11.054;2023-07-24T12:13:44;97087.63;;;24.12;100.00
19447;BME280;9862;49.462;11.054;2023-07-24T12:16:11;97087.66;;;23.94;100.00
19447;BME280;9862;49.462;11.054;2023-07-24T12:18:40;97076.47;;;23.96;100.00
19447;BME280;9862;49.462;11.054;2023-07-24T12:21:06;97087.00;;;23.89;100.00
19447;BME280;9862;49.462;11.054;2023-07-24T12:23:33;97084.75;;;23.91;100.00
19447;BME280;9862;49.462;11.054;2023-07-24T12:26:00;97087.00;;;23.97;100.00
19447;BME280;9862;49.462;11.054;2023-07-24T12:28:28;97077.56;;;23.95;100.00
19447;BME280;9862;49.462;11.054;2023-07-24T12:30:57;97079.31;;;23.91;100.00
19447;BME280;9862;49.462;11.054;2023-07-24T12:33:24;97068.75;;;23.89;100.00
19447;BME280;9862;49.462;11.054;2023-07-24T12:35:51;97070.34;;;23.90;100.00
19447;BME280;9862;49.462;11.054;2023-07-24T12:38:18;97056.16;;;23.93;100.00
19447;BME280;9862;49.462;11.054;2023-07-24T12:40:44;97058.69;;;23.90;100.00
19447;BME280;9862;49.462;11.054;2023-07-24T12:43:11;97058.53;;;23.86;100.00
19447;BME280;9862;49.462;11.054;2023-07-24T12:45:38;97047.66;;;23.86;100.00
19447;BME280;9862;49.462;11.054;2023-07-24T12:48:06;97035.50;;;23.92;100.00
19447;BME280;9862;49.462;11.054;2023-07-24T12:50:33;97037.44;;;24.01;100.00
19447;BME280;9862;49.462;11.054;2023-07-24T12:53:00;97051.81;;;23.92;100.00